Time;durP1;ratioP1;P1;durP2;ratioP2;P2;SDS_P1;SDS_P2;PMS_P1;PMS_P2;Temp;Humidity;BMP_temperature;BMP_pressure;BME280_temperature;BME280_humidity;BME280_pressure;Samples;Min_cycle;Max_cycle;Signal;HPM_P1;HPM_P2
2022/05/06 00:01:04;;;;;;;8.70;7.40;;;;;;;15.83;49.22;100764.02;104682;1290;22775;-77
2022/05/06 00:03:31;;;;;;;11.30;7.70;;;;;;;15.82;49.38;100766.15;104596;1290;26609;-80
2022/05/06 00:05:58;;;;;;;8.50;7.50;;;;;;;15.80;49.46;100763.53;104481;1290;23101;-77
2022/05/06 00:08:25;;;;;;;12.10;7.10;;;;;;;15.79;49.72;100760.38;104715;1290;22706;-75
2022/05/06 00:10:52;;;;;;;10.40;7.20;;;;;;;15.78;49.85;100758.23;105014;1290;22568;-75
2022/05/06 00:13:19;;;;;;;8.80;7.70;;;;;;;15.78;50.00;100757.37;104954;1290;22636;-77
2022/05/06 00:15:47;;;;;;;10.60;7.10;;;;;;;15.79;50.12;100755.22;104254;1291;24368;-76
2022/05/06 00:18:14;;;;;;;10.50;7.30;;;;;;;15.78;50.19;100754.34;104864;1290;23120;-72
2022/05/06 00:20:41;;;;;;;14.00;8.80;;;;;;;15.78;50.31;100755.41;104965;1290;24637;-75
2022/05/06 00:23:08;;;;;;;9.40;7.70;;;;;;;15.78;50.49;100753.28;105099;1290;25563;-74
2022/05/06 00:25:36;;;;;;;9.70;7.90;;;;;;;15.77;50.72;100751.89;104497;1291;22629;-76
2022/05/06 00:28:03;;;;;;;14.70;8.30;;;;;;;15.77;50.72;100748.52;104528;1290;24186;-75
2022/05/06 00:30:31;;;;;;;10.70;7.40;;;;;;;15.74;50.82;100749.13;104481;1290;24239;-76
2022/05/06 00:32:58;;;;;;;12.10;8.00;;;;;;;15.70;50.98;100743.54;104503;1290;25382;-76
2022/05/06 00:35:25;;;;;;;11.30;8.00;;;;;;;15.66;51.08;100744.55;104683;1290;24247;-73
2022/05/06 00:37:52;;;;;;;10.10;7.90;;;;;;;15.65;51.29;100742.42;104948;1290;24360;-74
2022/05/06 00:40:19;;;;;;;10.30;8.10;;;;;;;15.64;51.38;100747.06;104800;1290;24449;-76
2022/05/06 00:42:50;;;;;;;10.80;8.50;;;;;;;15.63;51.54;100743.55;104557;1290;24416;-79
2022/05/06 00:45:17;;;;;;;10.70;7.20;;;;;;;15.63;51.56;100747.28;104841;1290;25278;-78
2022/05/06 00:47:45;;;;;;;8.90;7.80;;;;;;;15.55;51.61;100741.95;104446;1290;26541;-73
2022/05/06 00:50:13;;;;;;;12.70;7.30;;;;;;;15.49;51.84;100737.12;104486;1291;24263;-78
2022/05/06 00:52:40;;;;;;;13.40;8.80;;;;;;;15.44;51.92;100738.14;104610;1290;22555;-78
2022/05/06 00:55:08;;;;;;;8.60;7.70;;;;;;;15.41;52.09;100740.88;104788;1290;25381;-76
2022/05/06 00:57:36;;;;;;;11.40;8.30;;;;;;;15.44;52.11;100748.96;104206;1297;22558;-76
2022/05/06 01:00:17;;;;;;;11.10;8.10;;;;;;;15.49;52.28;100744.95;104282;1296;25341;-79
2022/05/06 01:02:48;;;;;;;9.00;8.10;;;;;;;15.53;52.35;100750.35;104045;1296;24305;-80
2022/05/06 01:05:15;;;;;;;10.90;7.70;;;;;;;15.55;52.32;100748.88;104139;1296;22869;-78
2022/05/06 01:07:46;;;;;;;12.00;8.80;;;;;;;15.57;52.37;100747.76;104151;1296;25589;-77
2022/05/06 01:10:13;;;;;;;12.20;8.50;;;;;;;15.59;52.48;100747.55;104576;1296;23257;-76
2022/05/06 01:12:40;;;;;;;9.90;8.10;;;;;;;15.59;52.53;100749.14;104591;1296;22698;-76
2022/05/06 01:15:24;;;;;;;10.80;8.40;;;;;;;15.58;52.67;100752.34;105410;1290;22751;-76
2022/05/06 01:17:59;;;;;;;11.90;9.10;;;;;;;15.56;52.79;100753.10;105497;1290;25350;-74
2022/05/06 01:20:27;;;;;;;11.80;8.90;;;;;;;15.52;52.86;100754.63;105641;1296;25413;-73
2022/05/06 01:22:58;;;;;;;10.00;8.50;;;;;;;15.44;53.15;100761.23;103955;1296;23200;-76
2022/05/06 01:25:28;;;;;;;11.50;8.70;;;;;;;15.41;53.43;100758.63;103951;1296;25513;-75
2022/05/06 01:28:01;;;;;;;10.50;9.40;;;;;;;15.34;53.66;100760.18;103651;1299;24297;-75
2022/05/06 01:30:39;;;;;;;13.00;9.10;;;;;;;15.25;53.93;100764.30;103792;1299;22813;-78
2022/05/06 01:33:09;;;;;;;13.30;9.60;;;;;;;15.15;54.26;100762.21;103824;1296;24677;-74
2022/05/06 01:35:42;;;;;;;12.00;10.20;;;;;;;15.05;54.64;100759.94;103752;1296;25382;-76
2022/05/06 01:38:12;;;;;;;15.00;10.30;;;;;;;14.99;54.95;100760.98;103709;1290;22585;-77
2022/05/06 01:40:46;;;;;;;14.70;10.10;;;;;;;14.91;55.32;100757.94;104051;1290;24225;-80
2022/05/06 01:43:18;;;;;;;13.20;10.00;;;;;;;14.83;55.40;100757.03;104015;1290;22623;-75
2022/05/06 01:45:48;;;;;;;13.20;10.10;;;;;;;14.79;55.71;100752.86;104029;1291;22544;-77
2022/05/06 01:48:16;;;;;;;13.40;10.10;;;;;;;14.76;55.93;100754.67;104013;1290;22645;-76
2022/05/06 01:50:49;;;;;;;13.60;10.50;;;;;;;14.71;56.21;100758.67;104232;1290;22526;-77
2022/05/06 01:53:17;;;;;;;14.00;10.70;;;;;;;14.66;56.36;100759.31;104428;1291;22850;-78
2022/05/06 01:55:47;;;;;;;13.70;9.90;;;;;;;14.59;56.58;100761.04;104251;1291;24268;-74
2022/05/06 01:58:15;;;;;;;15.40;9.90;;;;;;;14.56;56.85;100764.48;104443;1290;22683;-76
2022/05/06 02:00:48;;;;;;;11.60;10.20;;;;;;;14.47;57.17;100759.84;104421;1290;22553;-78
2022/05/06 02:06:06;;;;;;;13.10;10.00;;;;;;;14.41;57.69;100763.86;104597;1290;22639;-76
2022/05/06 02:08:37;;;;;;;13.20;10.40;;;;;;;14.42;57.70;100765.44;104320;1290;22576;-72
2022/05/06 02:11:08;;;;;;;17.20;10.90;;;;;;;14.46;57.79;100767.84;104462;1290;22530;-72
2022/05/06 02:13:35;;;;;;;14.40;10.40;;;;;;;14.43;57.98;100767.02;104340;1291;25668;-76
2022/05/06 02:16:26;;;;;;;15.80;10.90;;;;;;;14.40;58.21;100771.50;104552;1290;22579;-72
2022/05/06 02:19:19;;;;;;;12.40;10.80;;;;;;;14.36;58.43;100771.23;104255;1290;25410;-74
2022/05/06 02:22:02;;;;;;;11.30;10.10;;;;;;;14.28;58.87;100770.48;103897;1296;25373;-75
2022/05/06 02:24:55;;;;;;;11.80;9.20;;;;;;;14.17;59.13;100766.24;103700;1296;24950;-74
2022/05/06 02:27:31;;;;;;;12.40;10.90;;;;;;;14.13;59.25;100761.37;104039;1296;22725;-75
2022/05/06 02:35:34;;;;;;;11.80;10.50;;;;;;;14.17;59.75;100769.25;103956;1296;26521;-76
2022/05/06 02:38:01;;;;;;;13.70;10.10;;;;;;;14.13;59.80;100761.73;103872;1297;23122;-75
2022/05/06 02:40:38;;;;;;;12.80;10.10;;;;;;;14.09;59.98;100765.15;104056;1290;22588;-74
2022/05/06 02:43:07;;;;;;;13.70;10.60;;;;;;;14.10;60.19;100762.65;104256;1291;22898;-74
2022/05/06 02:45:36;;;;;;;15.00;11.60;;;;;;;14.11;60.29;100761.23;104248;1290;23291;-76
2022/05/06 02:48:04;;;;;;;12.30;11.10;;;;;;;14.11;60.43;100764.60;104346;1290;24115;-73
2022/05/06 02:50:33;;;;;;;14.60;9.60;;;;;;;14.09;60.75;100769.05;104511;1290;24464;-82
2022/05/06 02:53:01;;;;;;;15.40;10.80;;;;;;;14.02;60.96;100771.64;104524;1290;22566;-78
2022/05/06 02:55:28;;;;;;;11.90;10.70;;;;;;;14.01;61.16;100772.19;104227;1290;24261;-86
2022/05/06 02:57:56;;;;;;;15.50;12.90;;;;;;;13.99;61.17;100775.95;104299;1290;22550;-81
2022/05/06 03:00:24;;;;;;;14.00;11.60;;;;;;;13.98;61.45;100774.90;104193;1293;22858;-82
2022/05/06 03:02:52;;;;;;;13.00;11.80;;;;;;;13.99;61.46;100777.73;104152;1291;22583;-81
2022/05/06 03:05:19;;;;;;;18.90;12.80;;;;;;;13.96;61.47;100777.25;104310;1294;24689;-85
2022/05/06 03:07:47;;;;;;;18.60;11.40;;;;;;;13.92;61.66;100778.19;104683;1290;22573;-80
2022/05/06 03:10:14;;;;;;;14.60;10.80;;;;;;;13.88;61.74;100780.05;104688;1291;22574;-81
2022/05/06 03:12:44;;;;;;;13.20;10.40;;;;;;;13.89;61.86;100778.79;104799;1290;24632;-82
2022/05/06 03:15:15;;;;;;;20.30;13.30;;;;;;;13.89;62.07;100778.98;104206;1294;22730;-82
2022/05/06 03:17:57;;;;;;;13.10;11.80;;;;;;;13.91;62.18;100777.70;104240;1290;22576;-82
2022/05/06 03:20:24;;;;;;;13.70;12.00;;;;;;;13.92;62.25;100786.00;103999;1290;22598;-80
2022/05/06 03:22:53;;;;;;;15.40;10.90;;;;;;;13.93;62.22;100781.89;104097;1293;22556;-83
2022/05/06 03:25:20;;;;;;;17.60;12.10;;;;;;;13.90;62.30;100781.78;104281;1290;25280;-83
2022/05/06 03:28:03;;;;;;;14.40;13.00;;;;;;;13.89;62.64;100783.73;103902;1293;22802;-81
2022/05/06 03:30:32;;;;;;;16.60;11.80;;;;;;;13.89;62.75;100790.83;104014;1290;25270;-85
2022/05/06 03:33:09;;;;;;;17.10;12.90;;;;;;;13.87;62.74;100792.08;103982;1294;22582;-84
2022/05/06 03:35:38;;;;;;;14.10;11.50;;;;;;;13.90;62.77;100797.89;104274;1290;25264;-78
2022/05/06 03:38:06;;;;;;;13.00;11.70;;;;;;;13.94;62.80;100799.59;104379;1290;25339;-78
2022/05/06 03:40:34;;;;;;;14.30;12.50;;;;;;;14.01;62.78;100805.30;104203;1293;22557;-80
2022/05/06 03:43:02;;;;;;;14.80;12.70;;;;;;;14.05;62.66;100804.54;104107;1293;22579;-78
2022/05/06 03:45:30;;;;;;;15.30;13.30;;;;;;;14.04;62.70;100806.13;104609;1290;22571;-81
2022/05/06 03:47:59;;;;;;;15.90;12.70;;;;;;;14.05;62.80;100806.30;104147;1293;22614;-83
2022/05/06 03:53:16;;;;;;;16.80;13.10;;;;;;;14.13;62.97;100808.84;104278;1291;22638;-83
2022/05/06 03:55:46;;;;;;;14.30;12.90;;;;;;;14.09;63.07;100814.55;104206;1299;22556;-91
2022/05/06 03:58:14;;;;;;;17.00;12.80;;;;;;;14.08;63.32;100811.73;105184;1299;22576;-90
2022/05/06 04:00:42;;;;;;;16.40;11.80;;;;;;;14.10;63.35;100816.66;104578;1299;22568;-90
2022/05/06 04:03:10;;;;;;;18.60;12.40;;;;;;;14.15;63.43;100821.90;104575;1299;22622;-83
2022/05/06 04:05:38;;;;;;;13.80;12.40;;;;;;;14.18;63.38;100822.39;103333;1304;25289;-84
2022/05/06 04:08:05;;;;;;;11.40;10.20;;;;;;;14.17;63.31;100827.20;103524;1305;22704;-81
2022/05/06 04:10:35;;;;;;;14.90;13.00;;;;;;;14.06;63.26;100831.25;104832;1304;22693;-86
2022/05/06 04:13:03;;;;;;;12.60;11.30;;;;;;;13.99;63.58;100830.31;104555;1299;25251;-83
2022/05/06 04:15:33;;;;;;;13.10;11.40;;;;;;;13.93;63.56;100837.31;105133;1296;22559;-85
2022/05/06 04:18:02;;;;;;;19.90;12.90;;;;;;;13.86;63.71;100842.91;104815;1296;23054;-87
2022/05/06 04:23:30;;;;;;;14.60;11.10;;;;;;;13.89;63.94;100838.11;103698;1296;22645;-84
2022/05/06 04:26:08;;;;;;;12.60;11.10;;;;;;;13.87;63.91;100834.92;104228;1296;22588;-88
2022/05/06 04:28:39;;;;;;;20.90;12.50;;;;;;;13.90;63.87;100842.85;104016;1296;22562;-85
2022/05/06 04:31:07;;;;;;;12.80;11.40;;;;;;;13.91;63.99;100840.38;103672;1300;25506;-86
2022/05/06 04:33:41;;;;;;;15.00;12.20;;;;;;;13.90;63.79;100848.88;103777;1300;25329;-86
2022/05/06 04:36:18;;;;;;;16.40;12.30;;;;;;;13.89;63.98;100844.46;104325;1302;22986;-86
2022/05/06 04:38:48;;;;;;;14.00;11.70;;;;;;;13.90;63.95;100850.98;104588;1298;25319;-88
2022/05/06 04:41:16;;;;;;;15.20;12.60;;;;;;;13.90;63.86;100856.14;104883;1298;22749;-86
2022/05/06 04:43:43;;;;;;;14.50;12.00;;;;;;;13.86;63.97;100851.58;104870;1299;23989;-86
2022/05/06 04:46:10;;;;;;;14.20;12.60;;;;;;;13.88;64.02;100855.65;104905;1299;25498;-88
2022/05/06 04:48:42;;;;;;;14.90;12.60;;;;;;;13.90;63.95;100857.18;105402;1293;22576;-86
2022/05/06 04:51:18;;;;;;;15.50;12.00;;;;;;;13.90;63.69;100860.02;106759;1293;22675;-87
2022/05/06 04:53:46;;;;;;;16.30;12.30;;;;;;;13.93;63.93;100861.21;105993;1290;22579;-88
2022/05/06 04:56:13;;;;;;;14.80;12.00;;;;;;;13.98;63.89;100864.33;105481;1296;24111;-88
2022/05/06 04:58:41;;;;;;;16.80;11.80;;;;;;;14.04;63.68;100868.65;105954;1296;22702;-91
2022/05/06 05:01:16;;;;;;;14.50;12.20;;;;;;;14.05;63.60;100871.29;106988;1295;263123;-85
2022/05/06 05:03:45;;;;;;;16.40;12.70;;;;;;;14.03;63.47;100869.90;105616;1296;23139;-85
2022/05/06 05:06:13;;;;;;;14.00;12.70;;;;;;;14.00;63.55;100872.61;104551;1296;22658;-83
2022/05/06 05:08:41;;;;;;;13.10;11.50;;;;;;;13.98;63.65;100871.41;105984;1295;22630;-91
2022/05/06 05:11:33;;;;;;;15.40;11.30;;;;;;;13.97;63.56;100868.95;107109;1299;22586;-91
2022/05/06 05:14:08;;;;;;;13.80;12.30;;;;;;;14.00;63.54;100865.52;106190;1300;22829;-91
2022/05/06 05:16:48;;;;;;;13.20;10.50;;;;;;;14.07;63.52;100863.65;105537;1300;22639;-88
2022/05/06 05:19:17;;;;;;;17.50;11.60;;;;;;;14.13;63.44;100859.65;105973;1300;24071;-90
2022/05/06 05:22:09;;;;;;;15.20;11.90;;;;;;;14.14;63.24;100863.73;105755;1300;22678;-92
2022/05/06 05:24:40;;;;;;;14.50;11.50;;;;;;;14.14;63.25;100876.46;105632;1297;24333;-90
2022/05/06 05:27:09;;;;;;;16.50;12.70;;;;;;;14.12;63.23;100875.61;105640;1296;25293;-91
2022/05/06 05:29:37;;;;;;;13.20;11.50;;;;;;;14.14;63.18;100876.83;105654;1296;22635;-90
2022/05/06 05:32:06;;;;;;;14.70;10.80;;;;;;;14.11;63.13;100876.69;105484;1302;22515;-91
2022/05/06 05:34:41;;;;;;;14.40;11.90;;;;;;;14.01;63.05;100884.82;105220;1307;22572;-92
2022/05/06 05:37:14;;;;;;;16.80;12.20;;;;;;;13.99;63.14;100886.45;103978;1308;22579;-87
2022/05/06 05:39:42;;;;;;;15.30;12.40;;;;;;;14.02;63.13;100891.88;103931;1305;22733;-86
2022/05/06 05:42:10;;;;;;;14.00;11.60;;;;;;;14.03;63.14;100894.52;103453;1308;25530;-85
2022/05/06 05:50:12;;;;;;;18.10;11.40;;;;;;;14.10;62.87;100895.14;103182;1304;24952;-80
2022/05/06 05:52:39;;;;;;;16.50;11.00;;;;;;;14.11;62.93;100897.43;103446;1298;24423;-83
2022/05/06 05:55:07;;;;;;;12.40;11.10;;;;;;;14.14;63.01;100898.78;103956;1299;25266;-86
2022/05/06 05:57:37;;;;;;;13.20;11.00;;;;;;;14.17;62.93;100905.65;104144;1298;22598;-88
2022/05/06 06:00:05;;;;;;;15.20;12.70;;;;;;;14.19;62.89;100903.50;104316;1293;22621;-86
2022/05/06 06:02:39;;;;;;;15.60;12.00;;;;;;;14.24;62.82;100902.52;104831;1290;22564;-87
2022/05/06 06:05:07;;;;;;;14.90;11.40;;;;;;;14.28;62.53;100906.36;104531;1291;24978;-86
2022/05/06 06:07:36;;;;;;;10.90;9.90;;;;;;;14.28;62.28;100907.41;104850;1290;25449;-88
2022/05/06 06:10:04;;;;;;;16.10;10.90;;;;;;;14.31;62.30;100903.30;104701;1290;23989;-86
2022/05/06 06:12:34;;;;;;;13.40;10.60;;;;;;;14.34;62.14;100901.83;104554;1291;25322;-86
2022/05/06 06:15:02;;;;;;;18.50;10.50;;;;;;;14.30;61.77;100907.20;105047;1290;22601;-85
2022/05/06 06:17:30;;;;;;;11.40;10.30;;;;;;;14.26;61.62;100905.32;105754;1291;22551;-84
2022/05/06 06:20:02;;;;;;;14.40;9.90;;;;;;;14.24;61.54;100908.55;105428;1293;22557;-86
2022/05/06 06:22:38;;;;;;;12.30;8.60;;;;;;;14.23;61.49;100910.69;106560;1293;22706;-90
2022/05/06 06:25:07;;;;;;;10.40;8.90;;;;;;;14.15;61.33;100911.16;107061;1290;23932;-90
2022/05/06 06:27:36;;;;;;;12.60;10.70;;;;;;;14.07;61.45;100912.16;105155;1290;25330;-88
2022/05/06 06:30:08;;;;;;;16.60;10.30;;;;;;;14.05;61.64;100916.45;104694;1293;25572;-86
2022/05/06 06:32:35;;;;;;;13.10;11.30;;;;;;;14.07;61.66;100916.59;104808;1290;22658;-88
2022/05/06 06:35:06;;;;;;;20.40;11.30;;;;;;;14.10;61.53;100916.90;104861;1290;24909;-90
2022/05/06 06:37:48;;;;;;;16.00;10.20;;;;;;;14.08;61.11;100913.04;104567;1296;22765;-88
2022/05/06 06:40:17;;;;;;;21.30;11.00;;;;;;;14.01;61.11;100919.88;104965;1296;23328;-89
2022/05/06 06:42:46;;;;;;;19.60;11.60;;;;;;;13.90;61.25;100917.75;105989;1296;23447;-89
2022/05/06 06:45:29;;;;;;;18.10;10.20;;;;;;;13.90;61.32;100929.42;106533;1296;23852;-89
2022/05/06 06:48:08;;;;;;;15.10;10.40;;;;;;;13.83;61.38;100934.11;105998;1296;23450;-89
2022/05/06 06:50:55;;;;;;;22.20;11.10;;;;;;;13.82;61.53;100932.89;105874;1296;22763;-89
2022/05/06 06:53:24;;;;;;;21.10;11.70;;;;;;;13.84;61.68;100934.98;105571;1296;22557;-89
2022/05/06 06:55:51;;;;;;;18.80;10.80;;;;;;;13.84;61.65;100929.67;105143;1299;25305;-88
2022/05/06 06:58:18;;;;;;;14.80;9.70;;;;;;;13.88;61.68;100929.28;104083;1299;22593;-86
2022/05/06 07:00:47;;;;;;;13.40;10.60;;;;;;;13.89;61.60;100928.19;103913;1297;22576;-87
2022/05/06 07:03:20;;;;;;;16.90;11.00;;;;;;;13.92;61.65;100931.16;104913;1302;22670;-89
2022/05/06 07:13:36;;;;;;;18.90;10.70;;;;;;;13.95;61.87;100935.20;105809;1297;23032;-88
2022/05/06 07:16:07;;;;;;;21.80;10.50;;;;;;;13.98;61.78;100936.21;105937;1296;22551;-90
2022/05/06 07:18:37;;;;;;;13.90;10.50;;;;;;;13.97;61.78;100938.70;105399;1296;22801;-90
2022/05/06 07:21:04;;;;;;;15.00;11.40;;;;;;;13.99;61.78;100941.86;105755;1294;22578;-88
2022/05/06 07:23:34;;;;;;;14.20;10.70;;;;;;;14.04;61.85;100940.38;106052;1293;22626;-90
2022/05/06 07:26:02;;;;;;;19.50;11.10;;;;;;;14.11;61.81;100944.70;106299;1299;22799;-89
2022/05/06 07:28:29;;;;;;;19.40;11.30;;;;;;;14.15;61.81;100942.34;105546;1302;22567;-90
2022/05/06 07:30:56;;;;;;;14.80;11.10;;;;;;;14.23;61.68;100945.23;106490;1301;23137;-91
2022/05/06 07:33:24;;;;;;;15.90;10.90;;;;;;;14.33;61.67;100948.63;106167;1302;22625;-90
2022/05/06 07:35:53;;;;;;;18.70;11.50;;;;;;;14.42;61.57;100946.70;106047;1302;22531;-90
2022/05/06 07:38:25;;;;;;;18.40;11.60;;;;;;;14.52;61.49;100948.14;104973;1302;25293;-89
2022/05/06 07:40:53;;;;;;;14.30;11.40;;;;;;;14.65;61.33;100953.59;104659;1302;24267;-88
2022/05/06 07:43:23;;;;;;;15.70;11.00;;;;;;;14.77;61.07;100953.05;104951;1299;23604;-91
2022/05/06 07:45:54;;;;;;;13.00;11.40;;;;;;;14.84;60.83;100954.35;105387;1290;22522;-88
2022/05/06 07:48:22;;;;;;;12.10;10.20;;;;;;;14.88;60.75;100958.20;106088;1290;22568;-90
2022/05/06 07:51:05;;;;;;;15.50;11.30;;;;;;;14.87;60.77;100958.58;106163;1290;22613;-91
2022/05/06 07:53:33;;;;;;;17.30;10.90;;;;;;;14.92;60.93;100951.89;105169;1296;22524;-87
2022/05/06 07:56:09;;;;;;;17.60;11.90;;;;;;;15.15;60.74;100954.86;105117;1302;25329;-90
2022/05/06 07:58:38;;;;;;;20.00;11.80;;;;;;;15.35;60.62;100957.84;104764;1302;22627;-87
2022/05/06 08:01:07;;;;;;;12.70;10.30;;;;;;;15.49;60.19;100957.38;104119;1302;22632;-88
2022/05/06 08:06:19;;;;;;;20.60;11.70;;;;;;;15.68;59.34;100963.39;103969;1302;24280;-89
2022/05/06 08:08:47;;;;;;;20.20;12.50;;;;;;;15.74;59.28;100962.02;103798;1302;25261;-89
2022/05/06 08:11:14;;;;;;;19.00;11.70;;;;;;;15.82;59.19;100960.42;103896;1296;22589;-87
2022/05/06 08:13:40;;;;;;;19.70;11.50;;;;;;;15.92;59.04;100960.38;104159;1296;22608;-88
2022/05/06 08:16:09;;;;;;;17.20;12.00;;;;;;;16.01;58.74;100965.73;104404;1296;22572;-87
2022/05/06 08:18:37;;;;;;;12.00;10.20;;;;;;;16.11;58.48;100966.21;104776;1296;24259;-86
2022/05/06 08:21:04;;;;;;;19.10;12.80;;;;;;;16.13;58.07;100961.91;104734;1291;24246;-86
2022/05/06 08:23:32;;;;;;;16.80;10.90;;;;;;;16.15;58.04;100965.05;104777;1291;22618;-89
2022/05/06 08:26:02;;;;;;;20.00;12.00;;;;;;;16.20;57.96;100964.75;105140;1290;24322;-87
2022/05/06 08:28:29;;;;;;;16.30;12.10;;;;;;;16.34;58.19;100964.41;104848;1290;24202;-86
2022/05/06 08:31:01;;;;;;;17.10;11.10;;;;;;;16.58;58.12;100964.23;105688;1288;22592;-92
2022/05/06 08:33:31;;;;;;;14.70;10.20;;;;;;;16.80;57.91;100958.31;105336;1290;22644;-89
2022/05/06 08:36:00;;;;;;;12.90;10.50;;;;;;;16.97;57.32;100957.17;105159;1290;24387;-87
2022/05/06 08:38:54;;;;;;;17.10;11.50;;;;;;;17.01;56.80;100960.64;105219;1290;23346;-91
2022/05/06 08:41:26;;;;;;;12.60;10.80;;;;;;;17.08;56.35;100963.13;105823;1290;26640;-89
2022/05/06 08:43:54;;;;;;;15.30;11.70;;;;;;;17.08;56.55;100961.70;105188;1290;22554;-89
2022/05/06 08:52:10;;;;;;;14.00;11.20;;;;;;;17.27;56.06;100964.21;106697;1290;22567;-86
2022/05/06 08:54:38;;;;;;;14.90;11.30;;;;;;;17.45;55.79;100960.52;107091;1290;22792;-90
2022/05/06 08:57:14;;;;;;;15.90;10.90;;;;;;;17.57;55.72;100958.54;107145;1290;23861;-89
2022/05/06 09:03:55;;;;;;;13.90;8.70;;;;;;;17.90;55.53;100956.70;107235;1293;22631;-89
2022/05/06 09:06:27;;;;;;;13.60;11.90;;;;;;;18.10;54.86;100957.54;107114;1290;22615;-89
2022/05/06 09:08:57;;;;;;;14.40;12.00;;;;;;;18.19;54.08;100956.18;105979;1290;22621;-90
2022/05/06 09:17:42;;;;;;;16.10;12.60;;;;;;;18.77;52.65;100954.80;104867;1290;24272;-88
2022/05/06 09:27:27;;;;;;;20.10;12.30;;;;;;;19.04;51.44;100954.41;106850;1294;22750;-89
2022/05/06 09:29:56;;;;;;;13.20;10.70;;;;;;;19.01;51.64;100954.54;105219;1299;22521;-86
2022/05/06 09:32:26;;;;;;;14.80;11.00;;;;;;;19.05;51.63;100954.92;104476;1299;26748;-86
2022/05/06 09:34:58;;;;;;;10.50;9.50;;;;;;;19.08;51.79;100951.10;104925;1299;24048;-87
2022/05/06 09:38:06;;;;;;;;;;;;;;;;;;;;;
2022/05/06 09:44:48;;;;;;;11.20;9.90;;;;;;;19.91;51.47;100941.05;104275;1306;24269;-88
2022/05/06 09:47:24;;;;;;;13.00;11.80;;;;;;;20.23;50.54;100942.33;105614;1305;22740;-87
2022/05/06 09:49:52;;;;;;;11.10;10.00;;;;;;;20.20;49.38;100942.26;104341;1305;25505;-88
2022/05/06 09:52:20;;;;;;;11.80;10.40;;;;;;;20.05;49.19;100944.97;104146;1305;22512;-90
2022/05/06 09:54:48;;;;;;;11.60;10.50;;;;;;;20.10;49.35;100944.98;103691;1308;22917;-88
2022/05/06 09:57:19;;;;;;;10.40;9.30;;;;;;;20.13;48.82;100946.66;104449;1306;24208;-89
2022/05/06 09:59:50;;;;;;;10.60;9.10;;;;;;;19.97;48.54;100941.36;103681;1308;22585;-88
2022/05/06 10:02:18;;;;;;;11.20;9.70;;;;;;;19.82;48.36;100941.41;105670;1302;22953;-87
2022/05/06 10:04:49;;;;;;;13.20;11.00;;;;;;;19.78;48.47;100942.81;105737;1302;22603;-85
2022/05/06 10:07:18;;;;;;;11.80;10.50;;;;;;;19.78;48.58;100944.20;105092;1302;25274;-84
2022/05/06 10:10:02;;;;;;;12.40;10.40;;;;;;;19.78;48.61;100944.77;103832;1308;23003;-86
2022/05/06 10:16:39;;;;;;;11.80;10.60;;;;;;;19.86;49.11;100948.04;104709;1301;25383;-92
2022/05/06 10:19:56;;;;;;;12.10;10.80;;;;;;;19.98;49.08;100946.70;104610;1296;23988;-93
2022/05/06 10:23:04;;;;;;;11.50;9.60;;;;;;;20.04;49.18;100943.95;104717;1296;23874;-91
2022/05/06 10:25:42;;;;;;;10.30;9.20;;;;;;;20.07;48.46;100946.71;105278;1296;22813;-91
2022/05/06 10:34:24;;;;;;;12.40;10.30;;;;;;;19.61;48.68;100949.70;104031;1302;25324;-85
2022/05/06 10:36:54;;;;;;;12.10;10.30;;;;;;;19.52;48.79;100951.83;103778;1300;23255;-83
2022/05/06 10:39:24;;;;;;;11.00;9.80;;;;;;;19.36;49.11;100952.59;103675;1302;24801;-81
2022/05/06 10:42:17;;;;;;;11.50;10.10;;;;;;;19.17;49.68;100953.63;103826;1300;24473;-81
2022/05/06 10:44:50;;;;;;;12.20;11.00;;;;;;;19.17;49.75;100949.89;103386;1302;24797;-79
2022/05/06 10:47:20;;;;;;;10.10;9.10;;;;;;;19.14;49.88;100948.73;103671;1299;24003;-80
2022/05/06 10:49:52;;;;;;;12.20;11.00;;;;;;;19.19;49.80;100948.39;103735;1297;22564;-82
2022/05/06 10:52:25;;;;;;;10.50;9.30;;;;;;;19.35;49.19;100941.58;103860;1296;22598;-81
2022/05/06 10:54:54;;;;;;;11.10;9.50;;;;;;;19.61;49.18;100941.32;103881;1296;23945;-79
2022/05/06 10:57:24;;;;;;;12.60;9.40;;;;;;;19.97;48.67;100941.90;103833;1296;24253;-81
2022/05/06 11:00:03;;;;;;;10.80;9.70;;;;;;;20.33;48.53;100936.57;103853;1297;25278;-81
2022/05/06 11:02:34;;;;;;;12.20;9.30;;;;;;;20.62;47.55;100931.79;103666;1296;22686;-82
2022/05/06 11:05:05;;;;;;;10.90;8.50;;;;;;;20.73;47.04;100935.27;103684;1299;22910;-80
2022/05/06 11:07:35;;;;;;;10.70;8.80;;;;;;;20.74;46.69;100938.94;104272;1290;22592;-82
2022/05/06 11:10:17;;;;;;;13.10;9.20;;;;;;;20.86;46.74;100942.95;104185;1293;22876;-80
2022/05/06 11:12:46;;;;;;;8.50;7.70;;;;;;;21.20;46.03;100946.84;104370;1293;26755;-77
2022/05/06 11:15:23;;;;;;;8.00;7.20;;;;;;;21.37;45.21;100941.75;104429;1294;25356;-80
2022/05/06 11:17:54;;;;;;;7.60;6.90;;;;;;;21.60;45.48;100933.02;104509;1290;22898;-80
2022/05/06 11:20:30;;;;;;;8.30;7.40;;;;;;;21.83;44.85;100926.98;103740;1296;22634;-78
2022/05/06 11:23:13;;;;;;;12.50;7.70;;;;;;;21.90;44.31;100929.48;103691;1296;24352;-80
2022/05/06 11:25:46;;;;;;;9.90;9.00;;;;;;;21.81;44.27;100933.15;103761;1296;22582;-81
2022/05/06 11:28:24;;;;;;;9.10;8.10;;;;;;;21.85;44.28;100931.36;103740;1299;22576;-81
2022/05/06 11:30:54;;;;;;;7.90;7.20;;;;;;;21.93;44.43;100923.96;103741;1296;25340;-81
2022/05/06 11:33:24;;;;;;;10.80;9.20;;;;;;;21.74;43.57;100931.14;103661;1296;22561;-79
2022/05/06 11:36:03;;;;;;;12.40;9.20;;;;;;;21.45;43.73;100931.76;103725;1296;25368;-81
2022/05/06 11:38:42;;;;;;;9.20;8.30;;;;;;;21.17;43.96;100929.24;104123;1290;25417;-78
2022/05/06 11:41:12;;;;;;;8.40;7.60;;;;;;;21.12;44.05;100930.34;104274;1291;25260;-76
2022/05/06 11:43:41;;;;;;;9.90;8.70;;;;;;;21.15;43.67;100932.89;104032;1291;25869;-78
2022/05/06 11:49:01;;;;;;;10.50;8.10;;;;;;;21.27;42.84;100925.38;104399;1291;22736;-80
2022/05/06 11:51:42;;;;;;;11.20;7.00;;;;;;;21.33;42.44;100922.27;104275;1291;22597;-82
2022/05/06 11:54:10;;;;;;;6.60;6.00;;;;;;;21.33;41.70;100925.32;104410;1290;22592;-80
2022/05/06 11:56:39;;;;;;;8.50;6.80;;;;;;;21.46;41.65;100930.45;104620;1290;22693;-81
2022/05/06 11:59:09;;;;;;;9.60;6.80;;;;;;;21.71;39.91;100923.56;104185;1293;24217;-82
2022/05/06 12:01:38;;;;;;;6.20;5.60;;;;;;;21.77;39.41;100922.22;104470;1291;23988;-80
2022/05/06 12:04:10;;;;;;;8.60;6.20;;;;;;;21.87;39.75;100926.43;105157;1291;23249;-79
2022/05/06 12:06:41;;;;;;;7.50;6.20;;;;;;;21.81;39.89;100922.38;105743;1290;25398;-78
2022/05/06 12:09:09;;;;;;;7.30;5.50;;;;;;;21.75;40.46;100921.02;104412;1291;24249;-81
2022/05/06 12:11:36;;;;;;;5.80;5.30;;;;;;;21.73;39.93;100914.14;104345;1290;22648;-80
2022/05/06 12:14:06;;;;;;;6.40;5.50;;;;;;;21.84;38.76;100917.42;104039;1293;25590;-77
2022/05/06 12:16:33;;;;;;;9.20;5.80;;;;;;;21.93;37.73;100912.33;104301;1293;22703;-78
2022/05/06 12:19:00;;;;;;;6.10;5.20;;;;;;;21.99;37.80;100909.86;104201;1291;22750;-79
2022/05/06 12:21:29;;;;;;;6.80;5.70;;;;;;;22.29;38.02;100914.48;104433;1290;23956;-80
2022/05/06 12:23:59;;;;;;;6.80;5.10;;;;;;;22.39;37.09;100913.65;104107;1291;24283;-81
2022/05/06 12:26:29;;;;;;;7.10;5.20;;;;;;;22.36;37.38;100905.70;104218;1291;23650;-76
2022/05/06 12:28:57;;;;;;;7.10;5.10;;;;;;;22.61;37.25;100903.58;105168;1291;22729;-77
2022/05/06 12:31:33;;;;;;;10.00;5.30;;;;;;;22.83;36.84;100896.74;104531;1291;22819;-80
2022/05/06 12:34:03;;;;;;;6.40;4.50;;;;;;;22.95;36.30;100900.41;104538;1293;22601;-83
2022/05/06 12:36:35;;;;;;;6.20;4.50;;;;;;;23.21;36.12;100899.05;104508;1291;24250;-88